sensor_id;sensor_type;location;lat;lon;timestamp;P1;durP1;ratioP1;P2;durP2;ratioP2
55718;SDS011;41623;46.104;19.656;2022-09-23T00:00:07;23.02;;;10.32;;
55718;SDS011;41623;46.104;19.656;2022-09-23T00:02:33;26.90;;;11.88;;
55718;SDS011;41623;46.104;19.656;2022-09-23T00:04:59;26.65;;;11.90;;
55718;SDS011;41623;46.104;19.656;2022-09-23T00:07:25;19.67;;;9.82;;
55718;SDS011;41623;46.104;19.656;2022-09-23T00:09:51;18.35;;;10.27;;
55718;SDS011;41623;46.104;19.656;2022-09-23T00:12:19;23.38;;;12.10;;
55718;SDS011;41623;46.104;19.656;2022-09-23T00:14:45;29.17;;;13.63;;
55718;SDS011;41623;46.104;19.656;2022-09-23T00:17:11;24.90;;;10.43;;
55718;SDS011;41623;46.104;19.656;2022-09-23T00:19:38;25.58;;;10.82;;
55718;SDS011;41623;46.104;19.656;2022-09-23T00:22:04;15.27;;;10.15;;
55718;SDS011;41623;46.104;19.656;2022-09-23T00:24:30;28.58;;;10.00;;
55718;SDS011;41623;46.104;19.656;2022-09-23T00:26:57;13.07;;;6.05;;
55718;SDS011;41623;46.104;19.656;2022-09-23T00:29:23;19.02;;;8.27;;
55718;SDS011;41623;46.104;19.656;2022-09-23T00:31:49;18.63;;;8.57;;
55718;SDS011;41623;46.104;19.656;2022-09-23T00:34:15;14.73;;;7.93;;
55718;SDS011;41623;46.104;19.656;2022-09-23T00:36:42;18.67;;;6.90;;
55718;SDS011;41623;46.104;19.656;2022-09-23T00:39:08;17.02;;;6.65;;
55718;SDS011;41623;46.104;19.656;2022-09-23T00:41:34;11.85;;;6.22;;
55718;SDS011;41623;46.104;19.656;2022-09-23T00:44:01;25.55;;;8.82;;
55718;SDS011;41623;46.104;19.656;2022-09-23T00:46:28;21.10;;;7.97;;
55718;SDS011;41623;46.104;19.656;2022-09-23T00:48:56;22.30;;;9.23;;
55718;SDS011;41623;46.104;19.656;2022-09-23T00:51:26;12.50;;;7.22;;
55718;SDS011;41623;46.104;19.656;2022-09-23T00:53:54;13.20;;;7.35;;
55718;SDS011;41623;46.104;19.656;2022-09-23T00:56:20;20.52;;;7.93;;
55718;SDS011;41623;46.104;19.656;2022-09-23T00:58:47;20.00;;;7.75;;
55718;SDS011;41623;46.104;19.656;2022-09-23T01:01:14;21.95;;;7.18;;
55718;SDS011;41623;46.104;19.656;2022-09-23T01:03:41;16.17;;;8.45;;
55718;SDS011;41623;46.104;19.656;2022-09-23T01:06:09;17.55;;;7.60;;
55718;SDS011;41623;46.104;19.656;2022-09-23T01:08:37;13.82;;;7.03;;
55718;SDS011;41623;46.104;19.656;2022-09-23T01:26:53;14.13;;;8.13;;
55718;SDS011;41623;46.104;19.656;2022-09-23T01:29:48;17.67;;;8.55;;
55718;SDS011;41623;46.104;19.656;2022-09-23T01:35:14;13.10;;;5.97;;
55718;SDS011;41623;46.104;19.656;2022-09-23T01:40:17;10.68;;;5.15;;
55718;SDS011;41623;46.104;19.656;2022-09-23T01:47:48;6.78;;;3.95;;
55718;SDS011;41623;46.104;19.656;2022-09-23T01:50:16;15.40;;;5.85;;
55718;SDS011;41623;46.104;19.656;2022-09-23T01:53:09;8.93;;;4.32;;
55718;SDS011;41623;46.104;19.656;2022-09-23T01:55:38;11.55;;;4.65;;
55718;SDS011;41623;46.104;19.656;2022-09-23T01:58:11;8.82;;;5.57;;
55718;SDS011;41623;46.104;19.656;2022-09-23T02:00:39;7.27;;;4.47;;
55718;SDS011;41623;46.104;19.656;2022-09-23T02:03:10;11.73;;;4.72;;
55718;SDS011;41623;46.104;19.656;2022-09-23T02:06:22;8.25;;;4.38;;
55718;SDS011;41623;46.104;19.656;2022-09-23T02:08:36;8.27;;;3.80;;
55718;SDS011;41623;46.104;19.656;2022-09-23T02:11:07;7.10;;;3.83;;
55718;SDS011;41623;46.104;19.656;2022-09-23T02:16:00;6.90;;;4.03;;
55718;SDS011;41623;46.104;19.656;2022-09-23T02:18:32;18.50;;;4.38;;
55718;SDS011;41623;46.104;19.656;2022-09-23T02:21:03;9.57;;;3.35;;
55718;SDS011;41623;46.104;19.656;2022-09-23T02:23:34;7.88;;;3.67;;
55718;SDS011;41623;46.104;19.656;2022-09-23T02:26:24;6.32;;;3.35;;
55718;SDS011;41623;46.104;19.656;2022-09-23T02:36:35;20.58;;;9.82;;
55718;SDS011;41623;46.104;19.656;2022-09-23T02:39:04;8.85;;;4.43;;
55718;SDS011;41623;46.104;19.656;2022-09-23T02:44:11;5.68;;;3.28;;
55718;SDS011;41623;46.104;19.656;2022-09-23T02:46:38;8.52;;;3.03;;
55718;SDS011;41623;46.104;19.656;2022-09-23T02:51:35;16.75;;;4.20;;
55718;SDS011;41623;46.104;19.656;2022-09-23T02:54:02;7.40;;;4.03;;
55718;SDS011;41623;46.104;19.656;2022-09-23T02:56:31;7.25;;;3.90;;
55718;SDS011;41623;46.104;19.656;2022-09-23T02:58:57;5.97;;;3.55;;
55718;SDS011;41623;46.104;19.656;2022-09-23T03:01:34;7.07;;;3.72;;
55718;SDS011;41623;46.104;19.656;2022-09-23T03:09:04;9.23;;;5.38;;
55718;SDS011;41623;46.104;19.656;2022-09-23T03:11:32;14.35;;;7.00;;
55718;SDS011;41623;46.104;19.656;2022-09-23T03:16:42;9.65;;;6.22;;
55718;SDS011;41623;46.104;19.656;2022-09-23T03:21:40;8.45;;;4.40;;
55718;SDS011;41623;46.104;19.656;2022-09-23T03:24:07;10.07;;;5.53;;
55718;SDS011;41623;46.104;19.656;2022-09-23T03:26:35;11.95;;;4.88;;
55718;SDS011;41623;46.104;19.656;2022-09-23T03:29:03;11.18;;;4.68;;
55718;SDS011;41623;46.104;19.656;2022-09-23T03:31:30;8.77;;;4.15;;
55718;SDS011;41623;46.104;19.656;2022-09-23T03:33:57;9.40;;;4.65;;
55718;SDS011;41623;46.104;19.656;2022-09-23T03:36:26;10.90;;;4.85;;
55718;SDS011;41623;46.104;19.656;2022-09-23T03:39:14;14.07;;;5.22;;
55718;SDS011;41623;46.104;19.656;2022-09-23T03:41:46;11.05;;;3.97;;
55718;SDS011;41623;46.104;19.656;2022-09-23T03:44:15;8.63;;;4.05;;
55718;SDS011;41623;46.104;19.656;2022-09-23T03:46:41;6.05;;;3.25;;
55718;SDS011;41623;46.104;19.656;2022-09-23T03:49:15;28.20;;;5.10;;
55718;SDS011;41623;46.104;19.656;2022-09-23T03:51:42;6.07;;;3.15;;
55718;SDS011;41623;46.104;19.656;2022-09-23T03:54:08;6.00;;;2.88;;
55718;SDS011;41623;46.104;19.656;2022-09-23T03:56:34;5.30;;;2.92;;
55718;SDS011;41623;46.104;19.656;2022-09-23T03:59:01;5.93;;;3.08;;
55718;SDS011;41623;46.104;19.656;2022-09-23T04:01:27;4.82;;;2.70;;
55718;SDS011;41623;46.104;19.656;2022-09-23T04:03:53;5.30;;;3.10;;
55718;SDS011;41623;46.104;19.656;2022-09-23T04:06:20;8.73;;;3.63;;
55718;SDS011;41623;46.104;19.656;2022-09-23T04:08:46;9.20;;;3.60;;
55718;SDS011;41623;46.104;19.656;2022-09-23T04:11:13;6.28;;;2.40;;
55718;SDS011;41623;46.104;19.656;2022-09-23T04:13:39;6.35;;;3.20;;
55718;SDS011;41623;46.104;19.656;2022-09-23T04:16:05;7.68;;;3.10;;
55718;SDS011;41623;46.104;19.656;2022-09-23T04:18:31;7.15;;;3.05;;
55718;SDS011;41623;46.104;19.656;2022-09-23T04:20:57;4.60;;;2.65;;
55718;SDS011;41623;46.104;19.656;2022-09-23T04:23:24;4.68;;;3.17;;
55718;SDS011;41623;46.104;19.656;2022-09-23T04:25:51;4.97;;;3.17;;
55718;SDS011;41623;46.104;19.656;2022-09-23T04:28:17;5.32;;;3.42;;
55718;SDS011;41623;46.104;19.656;2022-09-23T04:30:43;5.35;;;4.18;;
55718;SDS011;41623;46.104;19.656;2022-09-23T04:33:10;3.85;;;2.58;;
55718;SDS011;41623;46.104;19.656;2022-09-23T04:35:36;11.30;;;3.80;;
55718;SDS011;41623;46.104;19.656;2022-09-23T04:38:03;3.78;;;2.88;;
55718;SDS011;41623;46.104;19.656;2022-09-23T04:40:30;5.45;;;2.95;;
55718;SDS011;41623;46.104;19.656;2022-09-23T04:42:56;6.18;;;3.50;;
55718;SDS011;41623;46.104;19.656;2022-09-23T04:45:22;5.57;;;3.20;;
55718;SDS011;41623;46.104;19.656;2022-09-23T04:47:48;5.05;;;3.45;;
55718;SDS011;41623;46.104;19.656;2022-09-23T04:50:14;5.78;;;3.88;;
55718;SDS011;41623;46.104;19.656;2022-09-23T04:52:40;5.05;;;3.42;;
55718;SDS011;41623;46.104;19.656;2022-09-23T04:55:07;6.00;;;3.22;;
55718;SDS011;41623;46.104;19.656;2022-09-23T04:57:33;7.88;;;4.22;;
55718;SDS011;41623;46.104;19.656;2022-09-23T04:59:59;14.02;;;4.65;;
55718;SDS011;41623;46.104;19.656;2022-09-23T05:02:25;6.88;;;4.10;;
55718;SDS011;41623;46.104;19.656;2022-09-23T05:04:52;15.75;;;3.15;;
55718;SDS011;41623;46.104;19.656;2022-09-23T05:07:19;8.35;;;3.50;;
55718;SDS011;41623;46.104;19.656;2022-09-23T05:09:45;5.43;;;3.55;;
55718;SDS011;41623;46.104;19.656;2022-09-23T05:12:11;10.55;;;4.13;;
55718;SDS011;41623;46.104;19.656;2022-09-23T05:14:37;14.70;;;4.07;;
55718;SDS011;41623;46.104;19.656;2022-09-23T05:17:04;17.90;;;3.88;;
55718;SDS011;41623;46.104;19.656;2022-09-23T05:19:30;14.80;;;3.47;;
55718;SDS011;41623;46.104;19.656;2022-09-23T05:21:56;7.72;;;3.65;;
55718;SDS011;41623;46.104;19.656;2022-09-23T05:24:22;8.55;;;3.80;;
55718;SDS011;41623;46.104;19.656;2022-09-23T05:26:49;11.00;;;4.00;;
55718;SDS011;41623;46.104;19.656;2022-09-23T05:29:16;7.40;;;3.85;;
55718;SDS011;41623;46.104;19.656;2022-09-23T05:31:42;8.02;;;4.20;;
55718;SDS011;41623;46.104;19.656;2022-09-23T05:34:08;13.20;;;3.70;;
55718;SDS011;41623;46.104;19.656;2022-09-23T05:36:35;4.90;;;3.25;;
55718;SDS011;41623;46.104;19.656;2022-09-23T05:39:02;8.68;;;3.47;;
55718;SDS011;41623;46.104;19.656;2022-09-23T05:41:28;7.40;;;3.67;;
55718;SDS011;41623;46.104;19.656;2022-09-23T05:43:55;15.88;;;3.90;;
55718;SDS011;41623;46.104;19.656;2022-09-23T05:46:22;7.10;;;3.15;;
55718;SDS011;41623;46.104;19.656;2022-09-23T05:48:48;7.68;;;3.42;;
55718;SDS011;41623;46.104;19.656;2022-09-23T05:51:16;12.18;;;3.83;;
55718;SDS011;41623;46.104;19.656;2022-09-23T05:53:42;7.50;;;4.07;;
55718;SDS011;41623;46.104;19.656;2022-09-23T05:56:10;4.90;;;3.08;;
55718;SDS011;41623;46.104;19.656;2022-09-23T05:58:36;7.45;;;3.10;;
55718;SDS011;41623;46.104;19.656;2022-09-23T06:01:12;14.20;;;3.35;;
55718;SDS011;41623;46.104;19.656;2022-09-23T06:03:39;4.53;;;2.95;;
55718;SDS011;41623;46.104;19.656;2022-09-23T06:06:05;8.30;;;3.53;;
55718;SDS011;41623;46.104;19.656;2022-09-23T06:08:32;6.18;;;3.08;;
55718;SDS011;41623;46.104;19.656;2022-09-23T06:11:02;5.63;;;3.03;;
55718;SDS011;41623;46.104;19.656;2022-09-23T06:13:31;7.20;;;3.55;;
55718;SDS011;41623;46.104;19.656;2022-09-23T06:15:57;5.18;;;3.08;;
55718;SDS011;41623;46.104;19.656;2022-09-23T06:18:23;4.15;;;2.60;;
55718;SDS011;41623;46.104;19.656;2022-09-23T06:20:49;6.45;;;3.55;;
55718;SDS011;41623;46.104;19.656;2022-09-23T06:23:16;13.90;;;3.15;;
55718;SDS011;41623;46.104;19.656;2022-09-23T06:25:42;6.80;;;4.65;;
55718;SDS011;41623;46.104;19.656;2022-09-23T06:28:08;3.97;;;2.58;;
55718;SDS011;41623;46.104;19.656;2022-09-23T06:30:36;15.18;;;3.83;;
55718;SDS011;41623;46.104;19.656;2022-09-23T06:33:03;6.97;;;2.80;;
55718;SDS011;41623;46.104;19.656;2022-09-23T06:35:29;6.07;;;3.55;;
55718;SDS011;41623;46.104;19.656;2022-09-23T06:37:57;4.70;;;2.60;;
55718;SDS011;41623;46.104;19.656;2022-09-23T06:40:23;5.72;;;2.92;;
55718;SDS011;41623;46.104;19.656;2022-09-23T06:42:56;6.70;;;2.90;;
55718;SDS011;41623;46.104;19.656;2022-09-23T06:45:23;12.57;;;3.67;;
55718;SDS011;41623;46.104;19.656;2022-09-23T06:47:52;7.03;;;3.38;;
55718;SDS011;41623;46.104;19.656;2022-09-23T06:50:20;4.55;;;2.92;;
55718;SDS011;41623;46.104;19.656;2022-09-23T06:52:49;4.80;;;2.90;;
55718;SDS011;41623;46.104;19.656;2022-09-23T06:55:16;7.53;;;2.67;;
55718;SDS011;41623;46.104;19.656;2022-09-23T06:57:42;4.78;;;2.95;;
55718;SDS011;41623;46.104;19.656;2022-09-23T07:00:08;17.42;;;3.90;;
55718;SDS011;41623;46.104;19.656;2022-09-23T07:02:34;9.82;;;3.53;;
55718;SDS011;41623;46.104;19.656;2022-09-23T07:05:00;5.18;;;2.95;;
55718;SDS011;41623;46.104;19.656;2022-09-23T07:07:29;4.10;;;2.15;;
55718;SDS011;41623;46.104;19.656;2022-09-23T07:09:55;6.07;;;2.70;;
55718;SDS011;41623;46.104;19.656;2022-09-23T07:12:22;9.45;;;3.30;;
55718;SDS011;41623;46.104;19.656;2022-09-23T07:14:48;6.97;;;3.42;;
55718;SDS011;41623;46.104;19.656;2022-09-23T07:17:14;2.97;;;2.40;;
55718;SDS011;41623;46.104;19.656;2022-09-23T07:19:40;8.68;;;3.42;;
55718;SDS011;41623;46.104;19.656;2022-09-23T07:22:07;6.13;;;2.45;;
55718;SDS011;41623;46.104;19.656;2022-09-23T07:24:33;6.07;;;2.80;;
55718;SDS011;41623;46.104;19.656;2022-09-23T07:26:59;5.38;;;2.72;;
55718;SDS011;41623;46.104;19.656;2022-09-23T07:29:26;10.90;;;4.28;;
55718;SDS011;41623;46.104;19.656;2022-09-23T07:31:52;7.57;;;3.42;;
55718;SDS011;41623;46.104;19.656;2022-09-23T07:34:18;4.85;;;2.88;;
55718;SDS011;41623;46.104;19.656;2022-09-23T07:36:44;6.60;;;2.47;;
55718;SDS011;41623;46.104;19.656;2022-09-23T07:39:11;6.82;;;3.40;;
55718;SDS011;41623;46.104;19.656;2022-09-23T07:41:37;6.68;;;3.83;;
55718;SDS011;41623;46.104;19.656;2022-09-23T07:44:05;3.65;;;2.60;;
55718;SDS011;41623;46.104;19.656;2022-09-23T07:46:33;13.95;;;3.83;;
55718;SDS011;41623;46.104;19.656;2022-09-23T07:48:59;12.38;;;4.15;;
55718;SDS011;41623;46.104;19.656;2022-09-23T07:51:28;8.65;;;3.35;;
55718;SDS011;41623;46.104;19.656;2022-09-23T07:53:56;2.92;;;2.00;;
55718;SDS011;41623;46.104;19.656;2022-09-23T07:56:26;5.40;;;2.63;;
55718;SDS011;41623;46.104;19.656;2022-09-23T07:58:52;16.40;;;5.22;;
55718;SDS011;41623;46.104;19.656;2022-09-23T08:01:28;11.50;;;3.33;;
55718;SDS011;41623;46.104;19.656;2022-09-23T08:03:55;6.00;;;3.53;;
55718;SDS011;41623;46.104;19.656;2022-09-23T08:06:22;2.80;;;2.20;;
55718;SDS011;41623;46.104;19.656;2022-09-23T08:08:48;7.60;;;3.55;;
55718;SDS011;41623;46.104;19.656;2022-09-23T08:11:14;8.55;;;3.22;;
55718;SDS011;41623;46.104;19.656;2022-09-23T08:13:40;14.93;;;3.53;;
55718;SDS011;41623;46.104;19.656;2022-09-23T08:16:06;7.68;;;2.85;;
55718;SDS011;41623;46.104;19.656;2022-09-23T08:18:33;12.15;;;2.80;;
55718;SDS011;41623;46.104;19.656;2022-09-23T08:20:59;7.25;;;3.55;;
55718;SDS011;41623;46.104;19.656;2022-09-23T08:23:25;7.72;;;3.65;;
55718;SDS011;41623;46.104;19.656;2022-09-23T08:25:55;4.90;;;3.03;;
55718;SDS011;41623;46.104;19.656;2022-09-23T08:28:23;5.90;;;3.30;;
55718;SDS011;41623;46.104;19.656;2022-09-23T08:30:50;5.28;;;3.20;;
55718;SDS011;41623;46.104;19.656;2022-09-23T08:33:16;4.20;;;2.30;;
55718;SDS011;41623;46.104;19.656;2022-09-23T08:35:43;6.13;;;3.83;;
55718;SDS011;41623;46.104;19.656;2022-09-23T08:38:09;6.03;;;3.17;;
55718;SDS011;41623;46.104;19.656;2022-09-23T08:40:36;10.23;;;3.97;;
55718;SDS011;41623;46.104;19.656;2022-09-23T08:43:06;4.53;;;2.65;;
55718;SDS011;41623;46.104;19.656;2022-09-23T08:45:33;6.75;;;3.35;;
55718;SDS011;41623;46.104;19.656;2022-09-23T08:48:02;5.70;;;3.10;;
55718;SDS011;41623;46.104;19.656;2022-09-23T08:50:40;5.13;;;2.72;;
55718;SDS011;41623;46.104;19.656;2022-09-23T08:53:10;17.52;;;2.83;;
55718;SDS011;41623;46.104;19.656;2022-09-23T08:55:41;7.60;;;2.15;;
55718;SDS011;41623;46.104;19.656;2022-09-23T09:00:47;5.38;;;2.45;;
55718;SDS011;41623;46.104;19.656;2022-09-23T09:03:21;4.55;;;2.10;;
55718;SDS011;41623;46.104;19.656;2022-09-23T09:05:48;5.45;;;2.75;;
55718;SDS011;41623;46.104;19.656;2022-09-23T09:08:16;6.32;;;2.95;;
55718;SDS011;41623;46.104;19.656;2022-09-23T09:10:48;5.25;;;2.70;;
55718;SDS011;41623;46.104;19.656;2022-09-23T09:13:33;8.80;;;2.70;;
55718;SDS011;41623;46.104;19.656;2022-09-23T09:18:40;9.10;;;3.58;;
55718;SDS011;41623;46.104;19.656;2022-09-23T09:21:12;7.28;;;3.83;;
55718;SDS011;41623;46.104;19.656;2022-09-23T09:26:10;4.25;;;2.45;;
55718;SDS011;41623;46.104;19.656;2022-09-23T09:28:41;5.10;;;2.97;;
55718;SDS011;41623;46.104;19.656;2022-09-23T09:34:09;5.63;;;3.03;;
55718;SDS011;41623;46.104;19.656;2022-09-23T09:36:37;6.47;;;2.92;;
55718;SDS011;41623;46.104;19.656;2022-09-23T09:39:04;9.03;;;3.77;;
55718;SDS011;41623;46.104;19.656;2022-09-23T09:41:31;4.85;;;2.67;;
55718;SDS011;41623;46.104;19.656;2022-09-23T09:43:58;8.68;;;3.70;;
55718;SDS011;41623;46.104;19.656;2022-09-23T09:46:29;13.65;;;4.05;;
55718;SDS011;41623;46.104;19.656;2022-09-23T09:48:59;10.30;;;6.43;;
55718;SDS011;41623;46.104;19.656;2022-09-23T09:51:27;9.05;;;5.57;;
55718;SDS011;41623;46.104;19.656;2022-09-23T09:53:54;3.70;;;2.30;;
55718;SDS011;41623;46.104;19.656;2022-09-23T09:56:39;15.95;;;2.70;;
55718;SDS011;41623;46.104;19.656;2022-09-23T09:59:09;3.58;;;2.00;;
55718;SDS011;41623;46.104;19.656;2022-09-23T10:01:40;2.80;;;1.75;;
55718;SDS011;41623;46.104;19.656;2022-09-23T10:04:26;3.58;;;2.47;;
55718;SDS011;41623;46.104;19.656;2022-09-23T10:07:06;3.35;;;1.95;;
55718;SDS011;41623;46.104;19.656;2022-09-23T10:09:36;7.43;;;2.33;;
55718;SDS011;41623;46.104;19.656;2022-09-23T10:14:43;22.23;;;2.13;;
55718;SDS011;41623;46.104;19.656;2022-09-23T10:17:13;4.78;;;1.65;;
55718;SDS011;41623;46.104;19.656;2022-09-23T10:19:44;1.95;;;1.55;;
55718;SDS011;41623;46.104;19.656;2022-09-23T10:22:20;2.05;;;1.52;;
55718;SDS011;41623;46.104;19.656;2022-09-23T10:24:49;2.90;;;2.00;;
55718;SDS011;41623;46.104;19.656;2022-09-23T10:27:25;4.50;;;2.30;;
55718;SDS011;41623;46.104;19.656;2022-09-23T10:29:54;3.17;;;1.98;;
55718;SDS011;41623;46.104;19.656;2022-09-23T10:34:56;2.63;;;1.83;;
55718;SDS011;41623;46.104;19.656;2022-09-23T10:40:15;3.87;;;1.87;;
55718;SDS011;41623;46.104;19.656;2022-09-23T10:45:57;2.45;;;1.55;;
55718;SDS011;41623;46.104;19.656;2022-09-23T11:08:07;6.05;;;1.75;;
55718;SDS011;41623;46.104;19.656;2022-09-23T11:13:43;2.05;;;1.52;;
55718;SDS011;41623;46.104;19.656;2022-09-23T11:21:38;4.50;;;1.85;;
55718;SDS011;41623;46.104;19.656;2022-09-23T11:30:09;2.22;;;1.40;;
55718;SDS011;41623;46.104;19.656;2022-09-23T11:35:49;5.15;;;2.17;;
55718;SDS011;41623;46.104;19.656;2022-09-23T11:38:22;3.92;;;1.75;;
55718;SDS011;41623;46.104;19.656;2022-09-23T11:41:02;3.95;;;1.88;;
55718;SDS011;41623;46.104;19.656;2022-09-23T11:43:45;4.95;;;1.75;;
55718;SDS011;41623;46.104;19.656;2022-09-23T11:49:06;2.45;;;1.65;;
55718;SDS011;41623;46.104;19.656;2022-09-23T11:54:25;5.07;;;2.05;;
55718;SDS011;41623;46.104;19.656;2022-09-23T11:56:59;1.95;;;1.55;;
55718;SDS011;41623;46.104;19.656;2022-09-23T11:59:35;1.38;;;1.10;;
55718;SDS011;41623;46.104;19.656;2022-09-23T12:02:25;1.67;;;1.33;;
55718;SDS011;41623;46.104;19.656;2022-09-23T12:13:23;2.42;;;1.80;;
55718;SDS011;41623;46.104;19.656;2022-09-23T12:24:56;3.47;;;1.33;;
55718;SDS011;41623;46.104;19.656;2022-09-23T12:27:42;3.08;;;1.35;;
55718;SDS011;41623;46.104;19.656;2022-09-23T12:30:17;1.70;;;1.50;;
55718;SDS011;41623;46.104;19.656;2022-09-23T12:32:49;2.95;;;2.05;;
55718;SDS011;41623;46.104;19.656;2022-09-23T12:36:01;2.35;;;1.88;;
55718;SDS011;41623;46.104;19.656;2022-09-23T12:38:13;1.60;;;1.50;;
55718;SDS011;41623;46.104;19.656;2022-09-23T12:41:20;1.95;;;1.50;;
55718;SDS011;41623;46.104;19.656;2022-09-23T12:43:54;4.20;;;2.03;;
55718;SDS011;41623;46.104;19.656;2022-09-23T12:46:23;2.45;;;1.70;;
55718;SDS011;41623;46.104;19.656;2022-09-23T12:51:32;2.15;;;1.67;;
55718;SDS011;41623;46.104;19.656;2022-09-23T12:59:22;1.70;;;1.52;;
55718;SDS011;41623;46.104;19.656;2022-09-23T13:01:51;1.73;;;1.63;;
55718;SDS011;41623;46.104;19.656;2022-09-23T13:07:30;1.50;;;1.23;;
55718;SDS011;41623;46.104;19.656;2022-09-23T13:10:09;2.38;;;2.05;;
55718;SDS011;41623;46.104;19.656;2022-09-23T13:12:41;3.87;;;2.30;;
55718;SDS011;41623;46.104;19.656;2022-09-23T13:15:30;1.52;;;1.42;;
55718;SDS011;41623;46.104;19.656;2022-09-23T13:20:45;1.65;;;1.55;;
55718;SDS011;41623;46.104;19.656;2022-09-23T13:25:44;1.55;;;1.40;;
55718;SDS011;41623;46.104;19.656;2022-09-23T13:28:12;3.85;;;1.30;;
55718;SDS011;41623;46.104;19.656;2022-09-23T13:31:09;1.77;;;1.50;;
55718;SDS011;41623;46.104;19.656;2022-09-23T13:33:41;1.90;;;1.45;;
55718;SDS011;41623;46.104;19.656;2022-09-23T13:36:15;2.15;;;1.30;;
55718;SDS011;41623;46.104;19.656;2022-09-23T13:38:42;1.80;;;1.38;;
55718;SDS011;41623;46.104;19.656;2022-09-23T13:41:14;2.75;;;1.83;;
55718;SDS011;41623;46.104;19.656;2022-09-23T13:43:47;3.28;;;1.75;;
55718;SDS011;41623;46.104;19.656;2022-09-23T13:46:20;2.65;;;2.17;;
55718;SDS011;41623;46.104;19.656;2022-09-23T13:48:52;3.63;;;2.28;;
55718;SDS011;41623;46.104;19.656;2022-09-23T13:51:29;1.85;;;1.30;;
55718;SDS011;41623;46.104;19.656;2022-09-23T13:53:59;2.13;;;1.23;;
55718;SDS011;41623;46.104;19.656;2022-09-23T13:56:27;4.15;;;2.00;;
55718;SDS011;41623;46.104;19.656;2022-09-23T14:01:54;2.40;;;1.63;;
55718;SDS011;41623;46.104;19.656;2022-09-23T14:04:27;3.83;;;1.92;;
55718;SDS011;41623;46.104;19.656;2022-09-23T14:06:53;5.15;;;1.75;;
55718;SDS011;41623;46.104;19.656;2022-09-23T14:09:22;5.93;;;2.22;;
55718;SDS011;41623;46.104;19.656;2022-09-23T14:11:51;3.88;;;1.85;;
55718;SDS011;41623;46.104;19.656;2022-09-23T14:14:18;2.47;;;1.50;;
55718;SDS011;41623;46.104;19.656;2022-09-23T14:16:46;1.10;;;1.00;;
55718;SDS011;41623;46.104;19.656;2022-09-23T14:19:18;2.13;;;1.70;;
55718;SDS011;41623;46.104;19.656;2022-09-23T14:21:47;2.53;;;1.65;;
55718;SDS011;41623;46.104;19.656;2022-09-23T14:24:15;6.63;;;2.47;;
55718;SDS011;41623;46.104;19.656;2022-09-23T14:27:12;2.53;;;1.88;;
55718;SDS011;41623;46.104;19.656;2022-09-23T14:29:42;4.07;;;1.90;;
55718;SDS011;41623;46.104;19.656;2022-09-23T14:35:20;2.28;;;1.48;;
55718;SDS011;41623;46.104;19.656;2022-09-23T14:37:50;1.75;;;1.58;;
55718;SDS011;41623;46.104;19.656;2022-09-23T14:40:51;9.23;;;1.85;;
55718;SDS011;41623;46.104;19.656;2022-09-23T14:43:38;3.20;;;1.88;;
55718;SDS011;41623;46.104;19.656;2022-09-23T14:46:20;4.53;;;2.88;;
55718;SDS011;41623;46.104;19.656;2022-09-23T14:48:55;5.68;;;2.80;;
55718;SDS011;41623;46.104;19.656;2022-09-23T14:56:54;2.63;;;2.08;;
55718;SDS011;41623;46.104;19.656;2022-09-23T14:59:27;3.00;;;1.83;;
55718;SDS011;41623;46.104;19.656;2022-09-23T15:01:57;3.00;;;1.35;;
55718;SDS011;41623;46.104;19.656;2022-09-23T15:09:26;12.38;;;9.00;;
55718;SDS011;41623;46.104;19.656;2022-09-23T15:12:21;3.45;;;2.70;;
55718;SDS011;41623;46.104;19.656;2022-09-23T15:17:31;4.03;;;2.67;;
55718;SDS011;41623;46.104;19.656;2022-09-23T15:20:03;3.17;;;2.45;;
55718;SDS011;41623;46.104;19.656;2022-09-23T15:22:51;5.97;;;2.40;;
55718;SDS011;41623;46.104;19.656;2022-09-23T15:25:26;10.95;;;2.88;;
55718;SDS011;41623;46.104;19.656;2022-09-23T15:30:37;3.42;;;2.05;;
55718;SDS011;41623;46.104;19.656;2022-09-23T15:33:04;2.30;;;1.58;;
55718;SDS011;41623;46.104;19.656;2022-09-23T15:35:30;2.67;;;1.80;;
55718;SDS011;41623;46.104;19.656;2022-09-23T15:37:57;5.60;;;2.10;;
55718;SDS011;41623;46.104;19.656;2022-09-23T15:40:29;1.95;;;1.73;;
55718;SDS011;41623;46.104;19.656;2022-09-23T15:43:01;5.88;;;2.17;;
55718;SDS011;41623;46.104;19.656;2022-09-23T15:48:11;5.30;;;2.33;;
55718;SDS011;41623;46.104;19.656;2022-09-23T15:50:39;5.35;;;2.67;;
55718;SDS011;41623;46.104;19.656;2022-09-23T15:53:17;7.18;;;2.60;;
55718;SDS011;41623;46.104;19.656;2022-09-23T15:55:48;8.50;;;2.38;;
55718;SDS011;41623;46.104;19.656;2022-09-23T15:58:20;6.18;;;3.00;;
55718;SDS011;41623;46.104;19.656;2022-09-23T16:00:47;5.43;;;2.40;;
55718;SDS011;41623;46.104;19.656;2022-09-23T16:03:17;5.10;;;2.08;;
55718;SDS011;41623;46.104;19.656;2022-09-23T16:05:49;4.72;;;2.90;;
55718;SDS011;41623;46.104;19.656;2022-09-23T16:08:15;7.88;;;2.47;;
55718;SDS011;41623;46.104;19.656;2022-09-23T16:10:47;7.22;;;2.92;;
55718;SDS011;41623;46.104;19.656;2022-09-23T16:13:14;4.43;;;2.58;;
55718;SDS011;41623;46.104;19.656;2022-09-23T16:15:40;7.32;;;2.90;;
55718;SDS011;41623;46.104;19.656;2022-09-23T16:18:07;4.45;;;2.83;;
55718;SDS011;41623;46.104;19.656;2022-09-23T16:20:36;8.15;;;4.05;;
55718;SDS011;41623;46.104;19.656;2022-09-23T16:23:19;6.28;;;3.45;;
55718;SDS011;41623;46.104;19.656;2022-09-23T16:26:01;6.72;;;3.35;;
55718;SDS011;41623;46.104;19.656;2022-09-23T16:28:48;4.70;;;3.47;;
55718;SDS011;41623;46.104;19.656;2022-09-23T16:31:16;5.30;;;3.28;;
55718;SDS011;41623;46.104;19.656;2022-09-23T16:33:43;9.05;;;3.42;;
55718;SDS011;41623;46.104;19.656;2022-09-23T16:36:15;6.80;;;3.00;;
55718;SDS011;41623;46.104;19.656;2022-09-23T16:38:45;9.90;;;4.00;;
55718;SDS011;41623;46.104;19.656;2022-09-23T16:41:12;5.30;;;3.75;;
55718;SDS011;41623;46.104;19.656;2022-09-23T16:43:37;15.93;;;4.30;;
55718;SDS011;41623;46.104;19.656;2022-09-23T16:46:04;8.90;;;4.13;;
55718;SDS011;41623;46.104;19.656;2022-09-23T16:48:31;8.73;;;4.30;;
55718;SDS011;41623;46.104;19.656;2022-09-23T16:51:01;9.68;;;4.47;;
55718;SDS011;41623;46.104;19.656;2022-09-23T16:53:47;8.02;;;4.95;;
55718;SDS011;41623;46.104;19.656;2022-09-23T16:56:14;10.63;;;5.20;;
55718;SDS011;41623;46.104;19.656;2022-09-23T16:58:42;13.00;;;5.10;;
55718;SDS011;41623;46.104;19.656;2022-09-23T17:01:09;7.75;;;4.90;;
55718;SDS011;41623;46.104;19.656;2022-09-23T17:03:57;17.30;;;6.88;;
55718;SDS011;41623;46.104;19.656;2022-09-23T17:06:23;12.88;;;6.90;;
55718;SDS011;41623;46.104;19.656;2022-09-23T17:08:51;15.93;;;7.70;;
55718;SDS011;41623;46.104;19.656;2022-09-23T17:11:17;17.10;;;8.30;;
55718;SDS011;41623;46.104;19.656;2022-09-23T17:13:44;16.90;;;8.07;;
55718;SDS011;41623;46.104;19.656;2022-09-23T17:16:20;13.57;;;9.55;;
55718;SDS011;41623;46.104;19.656;2022-09-23T17:18:51;24.08;;;10.30;;
55718;SDS011;41623;46.104;19.656;2022-09-23T17:21:21;20.50;;;9.57;;
55718;SDS011;41623;46.104;19.656;2022-09-23T17:23:51;21.42;;;8.98;;
55718;SDS011;41623;46.104;19.656;2022-09-23T17:26:21;16.10;;;8.35;;
55718;SDS011;41623;46.104;19.656;2022-09-23T17:28:49;13.05;;;7.30;;
55718;SDS011;41623;46.104;19.656;2022-09-23T17:31:16;17.92;;;7.53;;
55718;SDS011;41623;46.104;19.656;2022-09-23T17:33:42;11.95;;;5.78;;
55718;SDS011;41623;46.104;19.656;2022-09-23T17:36:09;14.55;;;6.28;;
55718;SDS011;41623;46.104;19.656;2022-09-23T17:38:36;25.55;;;7.68;;
55718;SDS011;41623;46.104;19.656;2022-09-23T17:41:03;15.25;;;7.13;;